sensor_id;sensor_type;location;lat;lon;timestamp;P1;durP1;ratioP1;P2;durP2;ratioP2
56511;SDS011;42408;53.238;5.686;2023-11-21T00:01:54;5.43;;;2.10;;
56511;SDS011;42408;53.238;5.686;2023-11-21T00:04:20;6.95;;;2.17;;
56511;SDS011;42408;53.238;5.686;2023-11-21T00:06:46;6.53;;;2.10;;
56511;SDS011;42408;53.238;5.686;2023-11-21T00:09:12;5.93;;;2.00;;
56511;SDS011;42408;53.238;5.686;2023-11-21T00:11:40;4.10;;;2.10;;
56511;SDS011;42408;53.238;5.686;2023-11-21T00:14:06;5.80;;;2.35;;
56511;SDS011;42408;53.238;5.686;2023-11-21T00:16:33;7.43;;;2.55;;
56511;SDS011;42408;53.238;5.686;2023-11-21T00:18:59;5.65;;;2.15;;
56511;SDS011;42408;53.238;5.686;2023-11-21T00:21:25;5.63;;;2.70;;
56511;SDS011;42408;53.238;5.686;2023-11-21T00:23:50;4.93;;;2.13;;
56511;SDS011;42408;53.238;5.686;2023-11-21T00:26:16;6.40;;;2.30;;
56511;SDS011;42408;53.238;5.686;2023-11-21T00:28:42;7.57;;;2.73;;
56511;SDS011;42408;53.238;5.686;2023-11-21T00:31:07;6.37;;;2.63;;
56511;SDS011;42408;53.238;5.686;2023-11-21T00:33:33;6.23;;;3.10;;
56511;SDS011;42408;53.238;5.686;2023-11-21T00:35:59;6.93;;;2.37;;
56511;SDS011;42408;53.238;5.686;2023-11-21T00:38:25;7.90;;;2.72;;
56511;SDS011;42408;53.238;5.686;2023-11-21T00:40:52;8.77;;;3.20;;
56511;SDS011;42408;53.238;5.686;2023-11-21T00:43:21;7.85;;;3.20;;
56511;SDS011;42408;53.238;5.686;2023-11-21T00:45:50;6.15;;;2.80;;
56511;SDS011;42408;53.238;5.686;2023-11-21T00:48:16;8.75;;;2.92;;
56511;SDS011;42408;53.238;5.686;2023-11-21T00:50:44;10.60;;;3.45;;
56511;SDS011;42408;53.238;5.686;2023-11-21T00:53:10;9.20;;;3.97;;
56511;SDS011;42408;53.238;5.686;2023-11-21T00:55:36;9.80;;;5.03;;
56511;SDS011;42408;53.238;5.686;2023-11-21T00:58:03;16.35;;;5.07;;
56511;SDS011;42408;53.238;5.686;2023-11-21T01:00:29;11.95;;;5.45;;
56511;SDS011;42408;53.238;5.686;2023-11-21T01:02:55;15.77;;;6.40;;
56511;SDS011;42408;53.238;5.686;2023-11-21T01:05:21;16.70;;;7.10;;
56511;SDS011;42408;53.238;5.686;2023-11-21T01:07:46;18.80;;;7.63;;
56511;SDS011;42408;53.238;5.686;2023-11-21T01:10:12;16.70;;;8.80;;
56511;SDS011;42408;53.238;5.686;2023-11-21T01:12:38;15.23;;;7.90;;
56511;SDS011;42408;53.238;5.686;2023-11-21T01:15:04;14.40;;;7.55;;
56511;SDS011;42408;53.238;5.686;2023-11-21T01:17:34;15.85;;;8.32;;
56511;SDS011;42408;53.238;5.686;2023-11-21T01:20:00;19.52;;;8.48;;
56511;SDS011;42408;53.238;5.686;2023-11-21T01:22:26;14.70;;;5.20;;
56511;SDS011;42408;53.238;5.686;2023-11-21T01:24:53;11.95;;;4.75;;
56511;SDS011;42408;53.238;5.686;2023-11-21T01:27:19;13.68;;;5.22;;
56511;SDS011;42408;53.238;5.686;2023-11-21T01:29:45;13.93;;;5.05;;
56511;SDS011;42408;53.238;5.686;2023-11-21T01:32:11;13.17;;;4.97;;
56511;SDS011;42408;53.238;5.686;2023-11-21T01:34:37;12.07;;;3.87;;
56511;SDS011;42408;53.238;5.686;2023-11-21T01:37:03;13.25;;;3.75;;
56511;SDS011;42408;53.238;5.686;2023-11-21T01:39:30;9.52;;;3.15;;
56511;SDS011;42408;53.238;5.686;2023-11-21T01:41:56;8.02;;;2.60;;
56511;SDS011;42408;53.238;5.686;2023-11-21T01:44:25;14.88;;;3.65;;
56511;SDS011;42408;53.238;5.686;2023-11-21T01:46:51;11.37;;;4.80;;
56511;SDS011;42408;53.238;5.686;2023-11-21T01:49:17;15.52;;;7.32;;
56511;SDS011;42408;53.238;5.686;2023-11-21T01:51:47;14.57;;;8.35;;
56511;SDS011;42408;53.238;5.686;2023-11-21T01:54:15;14.48;;;8.73;;
56511;SDS011;42408;53.238;5.686;2023-11-21T01:56:42;16.63;;;8.13;;
56511;SDS011;42408;53.238;5.686;2023-11-21T01:59:11;11.85;;;7.93;;
56511;SDS011;42408;53.238;5.686;2023-11-21T02:01:39;13.68;;;6.20;;
56511;SDS011;42408;53.238;5.686;2023-11-21T02:04:06;13.73;;;5.65;;
56511;SDS011;42408;53.238;5.686;2023-11-21T02:06:33;14.70;;;4.90;;
56511;SDS011;42408;53.238;5.686;2023-11-21T02:08:59;11.83;;;4.20;;
56511;SDS011;42408;53.238;5.686;2023-11-21T02:11:25;12.83;;;3.70;;
56511;SDS011;42408;53.238;5.686;2023-11-21T02:13:52;12.75;;;3.50;;
56511;SDS011;42408;53.238;5.686;2023-11-21T02:16:19;12.05;;;3.72;;
56511;SDS011;42408;53.238;5.686;2023-11-21T02:18:46;12.38;;;3.42;;
56511;SDS011;42408;53.238;5.686;2023-11-21T02:21:13;11.48;;;3.58;;
56511;SDS011;42408;53.238;5.686;2023-11-21T02:23:39;14.45;;;3.80;;
56511;SDS011;42408;53.238;5.686;2023-11-21T02:26:09;11.38;;;3.95;;
56511;SDS011;42408;53.238;5.686;2023-11-21T02:28:35;11.48;;;3.20;;
56511;SDS011;42408;53.238;5.686;2023-11-21T02:31:01;8.00;;;3.10;;
56511;SDS011;42408;53.238;5.686;2023-11-21T02:33:29;11.38;;;3.30;;
56511;SDS011;42408;53.238;5.686;2023-11-21T02:35:58;10.85;;;3.25;;
56511;SDS011;42408;53.238;5.686;2023-11-21T02:38:28;10.90;;;2.80;;
56511;SDS011;42408;53.238;5.686;2023-11-21T02:40:53;11.27;;;3.20;;
56511;SDS011;42408;53.238;5.686;2023-11-21T02:43:19;12.23;;;3.27;;
56511;SDS011;42408;53.238;5.686;2023-11-21T02:45:45;10.23;;;2.83;;
56511;SDS011;42408;53.238;5.686;2023-11-21T02:48:10;13.67;;;2.90;;
56511;SDS011;42408;53.238;5.686;2023-11-21T02:50:36;11.23;;;3.50;;
56511;SDS011;42408;53.238;5.686;2023-11-21T02:53:02;15.70;;;3.28;;
56511;SDS011;42408;53.238;5.686;2023-11-21T02:55:30;9.98;;;3.03;;
56511;SDS011;42408;53.238;5.686;2023-11-21T02:57:59;13.32;;;3.50;;
56511;SDS011;42408;53.238;5.686;2023-11-21T03:00:25;14.30;;;3.30;;
56511;SDS011;42408;53.238;5.686;2023-11-21T03:02:51;11.07;;;3.10;;
56511;SDS011;42408;53.238;5.686;2023-11-21T03:05:16;12.17;;;3.20;;
56511;SDS011;42408;53.238;5.686;2023-11-21T03:07:42;11.60;;;3.77;;
56511;SDS011;42408;53.238;5.686;2023-11-21T03:10:08;11.47;;;3.30;;
56511;SDS011;42408;53.238;5.686;2023-11-21T03:12:36;12.93;;;3.83;;
56511;SDS011;42408;53.238;5.686;2023-11-21T03:15:02;10.32;;;3.95;;
56511;SDS011;42408;53.238;5.686;2023-11-21T03:17:29;14.13;;;4.00;;
56511;SDS011;42408;53.238;5.686;2023-11-21T03:19:54;15.73;;;4.60;;
56511;SDS011;42408;53.238;5.686;2023-11-21T03:22:20;11.33;;;3.73;;
56511;SDS011;42408;53.238;5.686;2023-11-21T03:24:45;12.67;;;3.50;;
56511;SDS011;42408;53.238;5.686;2023-11-21T03:27:11;13.20;;;3.47;;
56511;SDS011;42408;53.238;5.686;2023-11-21T03:29:37;9.60;;;2.97;;
56511;SDS011;42408;53.238;5.686;2023-11-21T03:32:03;15.67;;;4.33;;
56511;SDS011;42408;53.238;5.686;2023-11-21T03:34:29;14.13;;;4.60;;
56511;SDS011;42408;53.238;5.686;2023-11-21T03:36:55;13.67;;;5.03;;
56511;SDS011;42408;53.238;5.686;2023-11-21T03:39:20;14.60;;;5.50;;
56511;SDS011;42408;53.238;5.686;2023-11-21T03:41:47;17.95;;;6.10;;
56511;SDS011;42408;53.238;5.686;2023-11-21T03:44:13;18.33;;;6.77;;
56511;SDS011;42408;53.238;5.686;2023-11-21T03:46:39;12.35;;;6.15;;
56511;SDS011;42408;53.238;5.686;2023-11-21T03:49:05;14.67;;;7.03;;
56511;SDS011;42408;53.238;5.686;2023-11-21T03:51:30;18.63;;;8.30;;
56511;SDS011;42408;53.238;5.686;2023-11-21T03:53:56;17.53;;;8.37;;
56511;SDS011;42408;53.238;5.686;2023-11-21T03:56:22;16.63;;;7.50;;
56511;SDS011;42408;53.238;5.686;2023-11-21T03:58:48;18.87;;;7.97;;
56511;SDS011;42408;53.238;5.686;2023-11-21T04:01:20;16.58;;;7.43;;
56511;SDS011;42408;53.238;5.686;2023-11-21T04:03:50;15.85;;;7.45;;
56511;SDS011;42408;53.238;5.686;2023-11-21T04:06:16;16.08;;;7.40;;
56511;SDS011;42408;53.238;5.686;2023-11-21T04:08:42;17.35;;;7.70;;
56511;SDS011;42408;53.238;5.686;2023-11-21T04:11:09;19.83;;;8.35;;
56511;SDS011;42408;53.238;5.686;2023-11-21T04:13:37;19.70;;;7.00;;
56511;SDS011;42408;53.238;5.686;2023-11-21T04:16:04;19.17;;;7.85;;
56511;SDS011;42408;53.238;5.686;2023-11-21T04:18:31;19.40;;;7.38;;
56511;SDS011;42408;53.238;5.686;2023-11-21T04:20:56;18.50;;;7.67;;
56511;SDS011;42408;53.238;5.686;2023-11-21T04:23:22;20.13;;;7.73;;
56511;SDS011;42408;53.238;5.686;2023-11-21T04:25:48;22.90;;;8.03;;
56511;SDS011;42408;53.238;5.686;2023-11-21T04:28:13;17.90;;;8.33;;
56511;SDS011;42408;53.238;5.686;2023-11-21T04:30:39;19.50;;;7.43;;
56511;SDS011;42408;53.238;5.686;2023-11-21T04:33:05;19.88;;;7.72;;
56511;SDS011;42408;53.238;5.686;2023-11-21T04:35:32;16.73;;;7.20;;
56511;SDS011;42408;53.238;5.686;2023-11-21T04:37:58;14.23;;;7.27;;
56511;SDS011;42408;53.238;5.686;2023-11-21T04:40:23;16.63;;;7.67;;
56511;SDS011;42408;53.238;5.686;2023-11-21T04:42:49;18.90;;;8.13;;
56511;SDS011;42408;53.238;5.686;2023-11-21T04:45:15;15.07;;;6.60;;
56511;SDS011;42408;53.238;5.686;2023-11-21T04:47:40;13.00;;;6.67;;
56511;SDS011;42408;53.238;5.686;2023-11-21T04:50:06;17.63;;;7.10;;
56511;SDS011;42408;53.238;5.686;2023-11-21T04:52:32;13.93;;;6.37;;
56511;SDS011;42408;53.238;5.686;2023-11-21T04:55:01;17.70;;;7.88;;
56511;SDS011;42408;53.238;5.686;2023-11-21T04:57:27;23.33;;;10.40;;
56511;SDS011;42408;53.238;5.686;2023-11-21T04:59:53;19.35;;;8.82;;
56511;SDS011;42408;53.238;5.686;2023-11-21T05:02:19;21.80;;;10.17;;
56511;SDS011;42408;53.238;5.686;2023-11-21T05:04:46;21.77;;;9.75;;
56511;SDS011;42408;53.238;5.686;2023-11-21T05:07:13;18.65;;;9.38;;
56511;SDS011;42408;53.238;5.686;2023-11-21T05:09:42;20.17;;;9.27;;
56511;SDS011;42408;53.238;5.686;2023-11-21T05:12:09;19.70;;;9.75;;
56511;SDS011;42408;53.238;5.686;2023-11-21T05:14:35;22.65;;;10.00;;
56511;SDS011;42408;53.238;5.686;2023-11-21T05:17:01;23.70;;;10.50;;
56511;SDS011;42408;53.238;5.686;2023-11-21T05:19:27;23.17;;;11.40;;
56511;SDS011;42408;53.238;5.686;2023-11-21T05:21:52;23.33;;;10.23;;
56511;SDS011;42408;53.238;5.686;2023-11-21T05:24:18;22.97;;;10.80;;
56511;SDS011;42408;53.238;5.686;2023-11-21T05:26:43;21.47;;;9.70;;
56511;SDS011;42408;53.238;5.686;2023-11-21T05:29:09;21.83;;;11.40;;
56511;SDS011;42408;53.238;5.686;2023-11-21T05:31:36;23.40;;;10.57;;
56511;SDS011;42408;53.238;5.686;2023-11-21T05:34:01;22.50;;;10.68;;
56511;SDS011;42408;53.238;5.686;2023-11-21T05:36:28;22.50;;;11.32;;
56511;SDS011;42408;53.238;5.686;2023-11-21T05:38:54;24.67;;;11.40;;
56511;SDS011;42408;53.238;5.686;2023-11-21T05:41:19;24.00;;;11.47;;
56511;SDS011;42408;53.238;5.686;2023-11-21T05:43:45;23.23;;;11.63;;
56511;SDS011;42408;53.238;5.686;2023-11-21T05:46:10;24.43;;;13.33;;
56511;SDS011;42408;53.238;5.686;2023-11-21T05:48:36;23.87;;;12.27;;
56511;SDS011;42408;53.238;5.686;2023-11-21T05:51:03;22.90;;;12.10;;
56511;SDS011;42408;53.238;5.686;2023-11-21T05:53:30;18.58;;;10.15;;
56511;SDS011;42408;53.238;5.686;2023-11-21T05:55:55;19.07;;;11.13;;
56511;SDS011;42408;53.238;5.686;2023-11-21T05:58:21;19.93;;;11.03;;
56511;SDS011;42408;53.238;5.686;2023-11-21T06:00:47;19.70;;;10.07;;
56511;SDS011;42408;53.238;5.686;2023-11-21T06:03:13;21.83;;;10.70;;
56511;SDS011;42408;53.238;5.686;2023-11-21T06:05:38;24.47;;;11.97;;
56511;SDS011;42408;53.238;5.686;2023-11-21T06:08:04;23.83;;;11.63;;
56511;SDS011;42408;53.238;5.686;2023-11-21T06:10:31;19.10;;;11.68;;
56511;SDS011;42408;53.238;5.686;2023-11-21T06:12:57;22.43;;;11.70;;
56511;SDS011;42408;53.238;5.686;2023-11-21T06:15:23;21.67;;;10.93;;
56511;SDS011;42408;53.238;5.686;2023-11-21T06:17:49;21.93;;;11.23;;
56511;SDS011;42408;53.238;5.686;2023-11-21T06:20:17;27.20;;;12.93;;
56511;SDS011;42408;53.238;5.686;2023-11-21T06:22:48;24.38;;;12.10;;
56511;SDS011;42408;53.238;5.686;2023-11-21T06:25:15;23.98;;;12.52;;
56511;SDS011;42408;53.238;5.686;2023-11-21T06:27:43;22.05;;;11.98;;
56511;SDS011;42408;53.238;5.686;2023-11-21T06:30:10;29.38;;;15.10;;
56511;SDS011;42408;53.238;5.686;2023-11-21T06:32:37;28.35;;;13.63;;
56511;SDS011;42408;53.238;5.686;2023-11-21T06:35:04;25.38;;;13.82;;
56511;SDS011;42408;53.238;5.686;2023-11-21T06:37:31;26.88;;;12.85;;
56511;SDS011;42408;53.238;5.686;2023-11-21T06:39:57;29.77;;;14.23;;
56511;SDS011;42408;53.238;5.686;2023-11-21T06:42:23;27.13;;;13.30;;
56511;SDS011;42408;53.238;5.686;2023-11-21T06:44:53;27.52;;;14.63;;
56511;SDS011;42408;53.238;5.686;2023-11-21T06:47:22;26.15;;;13.10;;
56511;SDS011;42408;53.238;5.686;2023-11-21T06:49:51;25.55;;;13.25;;
56511;SDS011;42408;53.238;5.686;2023-11-21T06:52:17;27.52;;;14.60;;
56511;SDS011;42408;53.238;5.686;2023-11-21T06:54:44;27.27;;;14.13;;
56511;SDS011;42408;53.238;5.686;2023-11-21T06:57:10;27.98;;;13.50;;
56511;SDS011;42408;53.238;5.686;2023-11-21T06:59:36;24.20;;;12.30;;
56511;SDS011;42408;53.238;5.686;2023-11-21T07:02:02;26.60;;;13.70;;
56511;SDS011;42408;53.238;5.686;2023-11-21T07:04:29;26.60;;;13.05;;
56511;SDS011;42408;53.238;5.686;2023-11-21T07:06:55;25.70;;;13.33;;
56511;SDS011;42408;53.238;5.686;2023-11-21T07:09:21;21.70;;;13.00;;
56511;SDS011;42408;53.238;5.686;2023-11-21T07:11:51;20.92;;;12.13;;
56511;SDS011;42408;53.238;5.686;2023-11-21T07:14:17;25.45;;;13.18;;
56511;SDS011;42408;53.238;5.686;2023-11-21T07:16:44;21.80;;;12.68;;
56511;SDS011;42408;53.238;5.686;2023-11-21T07:19:10;22.92;;;12.50;;
56511;SDS011;42408;53.238;5.686;2023-11-21T07:21:37;21.02;;;12.77;;
56511;SDS011;42408;53.238;5.686;2023-11-21T07:24:04;21.33;;;12.88;;
56511;SDS011;42408;53.238;5.686;2023-11-21T07:26:31;22.95;;;13.40;;
56511;SDS011;42408;53.238;5.686;2023-11-21T07:28:58;25.08;;;13.70;;
56511;SDS011;42408;53.238;5.686;2023-11-21T07:31:24;23.07;;;13.23;;
56511;SDS011;42408;53.238;5.686;2023-11-21T07:33:50;20.83;;;13.13;;
56511;SDS011;42408;53.238;5.686;2023-11-21T07:36:21;24.48;;;12.82;;
56511;SDS011;42408;53.238;5.686;2023-11-21T07:38:47;25.25;;;13.02;;
56511;SDS011;42408;53.238;5.686;2023-11-21T07:41:13;21.90;;;12.13;;
56511;SDS011;42408;53.238;5.686;2023-11-21T07:43:40;24.40;;;12.68;;
56511;SDS011;42408;53.238;5.686;2023-11-21T07:46:07;23.15;;;13.77;;
56511;SDS011;42408;53.238;5.686;2023-11-21T07:48:33;24.17;;;13.53;;
56511;SDS011;42408;53.238;5.686;2023-11-21T07:50:59;20.65;;;11.95;;
56511;SDS011;42408;53.238;5.686;2023-11-21T07:53:32;21.30;;;12.63;;
56511;SDS011;42408;53.238;5.686;2023-11-21T07:56:08;22.77;;;13.50;;
56511;SDS011;42408;53.238;5.686;2023-11-21T07:58:34;21.17;;;12.48;;
56511;SDS011;42408;53.238;5.686;2023-11-21T08:01:01;21.00;;;11.95;;
56511;SDS011;42408;53.238;5.686;2023-11-21T08:03:27;21.65;;;13.27;;
56511;SDS011;42408;53.238;5.686;2023-11-21T08:05:55;23.65;;;12.85;;
56511;SDS011;42408;53.238;5.686;2023-11-21T08:08:21;23.23;;;12.60;;
56511;SDS011;42408;53.238;5.686;2023-11-21T08:10:47;21.93;;;12.70;;
56511;SDS011;42408;53.238;5.686;2023-11-21T08:13:33;21.08;;;11.68;;
56511;SDS011;42408;53.238;5.686;2023-11-21T08:15:58;20.90;;;11.70;;
56511;SDS011;42408;53.238;5.686;2023-11-21T08:18:28;24.23;;;12.25;;
56511;SDS011;42408;53.238;5.686;2023-11-21T08:20:54;18.25;;;10.73;;
56511;SDS011;42408;53.238;5.686;2023-11-21T08:23:20;19.10;;;11.60;;
56511;SDS011;42408;53.238;5.686;2023-11-21T08:25:50;19.70;;;11.38;;
56511;SDS011;42408;53.238;5.686;2023-11-21T08:28:16;22.07;;;11.53;;
56511;SDS011;42408;53.238;5.686;2023-11-21T08:30:41;21.33;;;10.87;;
56511;SDS011;42408;53.238;5.686;2023-11-21T08:33:07;20.07;;;11.10;;
56511;SDS011;42408;53.238;5.686;2023-11-21T08:35:37;22.45;;;10.98;;
56511;SDS011;42408;53.238;5.686;2023-11-21T08:38:03;17.27;;;11.23;;
56511;SDS011;42408;53.238;5.686;2023-11-21T08:40:29;19.15;;;10.93;;
56511;SDS011;42408;53.238;5.686;2023-11-21T08:42:55;16.13;;;9.67;;
56511;SDS011;42408;53.238;5.686;2023-11-21T08:45:21;17.85;;;10.43;;
56511;SDS011;42408;53.238;5.686;2023-11-21T08:47:47;18.58;;;10.55;;
56511;SDS011;42408;53.238;5.686;2023-11-21T08:50:13;19.30;;;11.20;;
56511;SDS011;42408;53.238;5.686;2023-11-21T08:52:40;16.33;;;10.27;;
56511;SDS011;42408;53.238;5.686;2023-11-21T08:55:06;19.05;;;11.13;;
56511;SDS011;42408;53.238;5.686;2023-11-21T09:00:05;18.38;;;11.13;;
56511;SDS011;42408;53.238;5.686;2023-11-21T09:02:36;18.30;;;10.07;;
56511;SDS011;42408;53.238;5.686;2023-11-21T09:05:04;17.23;;;10.45;;
56511;SDS011;42408;53.238;5.686;2023-11-21T09:07:30;18.15;;;10.50;;
56511;SDS011;42408;53.238;5.686;2023-11-21T09:09:56;21.30;;;10.13;;
56511;SDS011;42408;53.238;5.686;2023-11-21T09:12:22;15.67;;;10.20;;
56511;SDS011;42408;53.238;5.686;2023-11-21T09:14:49;17.08;;;9.48;;
56511;SDS011;42408;53.238;5.686;2023-11-21T09:17:16;14.25;;;9.05;;
56511;SDS011;42408;53.238;5.686;2023-11-21T09:19:42;15.80;;;9.57;;
56511;SDS011;42408;53.238;5.686;2023-11-21T09:22:10;15.73;;;9.65;;
56511;SDS011;42408;53.238;5.686;2023-11-21T09:24:36;17.13;;;8.63;;
56511;SDS011;42408;53.238;5.686;2023-11-21T09:27:02;15.50;;;8.85;;
56511;SDS011;42408;53.238;5.686;2023-11-21T09:29:28;17.13;;;8.93;;
56511;SDS011;42408;53.238;5.686;2023-11-21T09:31:54;15.47;;;9.73;;
56511;SDS011;42408;53.238;5.686;2023-11-21T09:34:22;19.15;;;10.15;;
56511;SDS011;42408;53.238;5.686;2023-11-21T09:36:47;16.20;;;10.87;;
56511;SDS011;42408;53.238;5.686;2023-11-21T09:39:13;18.07;;;10.73;;
56511;SDS011;42408;53.238;5.686;2023-11-21T09:41:44;19.30;;;11.57;;
56511;SDS011;42408;53.238;5.686;2023-11-21T09:44:16;19.17;;;12.25;;
56511;SDS011;42408;53.238;5.686;2023-11-21T09:46:45;20.25;;;11.43;;
56511;SDS011;42408;53.238;5.686;2023-11-21T09:49:17;20.23;;;13.18;;
56511;SDS011;42408;53.238;5.686;2023-11-21T09:51:47;19.85;;;12.48;;
56511;SDS011;42408;53.238;5.686;2023-11-21T09:54:15;16.65;;;11.30;;
56511;SDS011;42408;53.238;5.686;2023-11-21T09:56:41;17.75;;;10.23;;
56511;SDS011;42408;53.238;5.686;2023-11-21T09:59:07;20.20;;;11.75;;
56511;SDS011;42408;53.238;5.686;2023-11-21T10:01:38;15.05;;;10.38;;
56511;SDS011;42408;53.238;5.686;2023-11-21T10:04:05;16.20;;;9.93;;
56511;SDS011;42408;53.238;5.686;2023-11-21T10:06:36;16.00;;;10.55;;
56511;SDS011;42408;53.238;5.686;2023-11-21T10:09:11;13.38;;;10.10;;
56511;SDS011;42408;53.238;5.686;2023-11-21T10:11:41;15.38;;;10.07;;
56511;SDS011;42408;53.238;5.686;2023-11-21T10:14:10;18.33;;;10.85;;
56511;SDS011;42408;53.238;5.686;2023-11-21T10:16:38;14.25;;;9.98;;
56511;SDS011;42408;53.238;5.686;2023-11-21T10:19:04;21.60;;;10.18;;
56511;SDS011;42408;53.238;5.686;2023-11-21T10:21:34;15.35;;;9.20;;
56511;SDS011;42408;53.238;5.686;2023-11-21T10:24:00;14.60;;;8.95;;
56511;SDS011;42408;53.238;5.686;2023-11-21T10:26:26;15.03;;;9.73;;
56511;SDS011;42408;53.238;5.686;2023-11-21T10:29:00;15.93;;;9.60;;
56511;SDS011;42408;53.238;5.686;2023-11-21T10:31:28;13.02;;;8.35;;
56511;SDS011;42408;53.238;5.686;2023-11-21T10:36:42;13.25;;;9.20;;
56511;SDS011;42408;53.238;5.686;2023-11-21T10:39:08;13.60;;;9.07;;
56511;SDS011;42408;53.238;5.686;2023-11-21T10:41:34;15.40;;;9.93;;
56511;SDS011;42408;53.238;5.686;2023-11-21T10:44:01;15.97;;;10.03;;
56511;SDS011;42408;53.238;5.686;2023-11-21T10:46:31;14.82;;;10.45;;
56511;SDS011;42408;53.238;5.686;2023-11-21T10:48:57;15.55;;;9.27;;
56511;SDS011;42408;53.238;5.686;2023-11-21T10:51:23;13.60;;;9.30;;
56511;SDS011;42408;53.238;5.686;2023-11-21T10:56:19;13.85;;;8.73;;
56511;SDS011;42408;53.238;5.686;2023-11-21T10:58:51;13.43;;;9.70;;
56511;SDS011;42408;53.238;5.686;2023-11-21T11:01:17;15.48;;;9.45;;
56511;SDS011;42408;53.238;5.686;2023-11-21T11:03:46;14.18;;;9.80;;
56511;SDS011;42408;53.238;5.686;2023-11-21T11:06:13;15.27;;;9.75;;
56511;SDS011;42408;53.238;5.686;2023-11-21T11:08:40;13.48;;;8.73;;
56511;SDS011;42408;53.238;5.686;2023-11-21T11:11:06;16.15;;;9.73;;
56511;SDS011;42408;53.238;5.686;2023-11-21T11:13:32;14.65;;;9.68;;
56511;SDS011;42408;53.238;5.686;2023-11-21T11:15:59;13.30;;;9.00;;
56511;SDS011;42408;53.238;5.686;2023-11-21T11:18:27;13.38;;;9.27;;
56511;SDS011;42408;53.238;5.686;2023-11-21T11:20:54;14.40;;;9.45;;
56511;SDS011;42408;53.238;5.686;2023-11-21T11:26:50;13.13;;;8.05;;
56511;SDS011;42408;53.238;5.686;2023-11-21T11:37:47;14.68;;;9.10;;
56511;SDS011;42408;53.238;5.686;2023-11-21T11:40:13;12.57;;;8.47;;
56511;SDS011;42408;53.238;5.686;2023-11-21T11:42:41;12.50;;;8.35;;
56511;SDS011;42408;53.238;5.686;2023-11-21T11:45:33;12.95;;;7.45;;
56511;SDS011;42408;53.238;5.686;2023-11-21T11:48:00;10.85;;;7.63;;
56511;SDS011;42408;53.238;5.686;2023-11-21T11:50:27;12.15;;;7.57;;
56511;SDS011;42408;53.238;5.686;2023-11-21T11:52:53;11.52;;;7.57;;
56511;SDS011;42408;53.238;5.686;2023-11-21T11:57:50;10.88;;;6.70;;
56511;SDS011;42408;53.238;5.686;2023-11-21T12:00:20;10.75;;;7.43;;
56511;SDS011;42408;53.238;5.686;2023-11-21T12:02:55;9.77;;;6.20;;
56511;SDS011;42408;53.238;5.686;2023-11-21T12:05:28;9.50;;;6.45;;
56511;SDS011;42408;53.238;5.686;2023-11-21T12:08:03;9.80;;;6.55;;
56511;SDS011;42408;53.238;5.686;2023-11-21T12:10:32;10.07;;;6.25;;
56511;SDS011;42408;53.238;5.686;2023-11-21T12:13:06;10.25;;;6.40;;
56511;SDS011;42408;53.238;5.686;2023-11-21T12:15:33;9.32;;;6.55;;
56511;SDS011;42408;53.238;5.686;2023-11-21T12:18:00;9.32;;;6.70;;
56511;SDS011;42408;53.238;5.686;2023-11-21T12:20:26;8.88;;;5.78;;
56511;SDS011;42408;53.238;5.686;2023-11-21T12:22:56;10.45;;;6.25;;
56511;SDS011;42408;53.238;5.686;2023-11-21T12:25:25;8.68;;;5.72;;
56511;SDS011;42408;53.238;5.686;2023-11-21T12:27:54;8.27;;;5.55;;
56511;SDS011;42408;53.238;5.686;2023-11-21T12:30:21;8.63;;;5.47;;
56511;SDS011;42408;53.238;5.686;2023-11-21T12:32:48;7.97;;;5.57;;
56511;SDS011;42408;53.238;5.686;2023-11-21T12:35:16;9.45;;;6.20;;
56511;SDS011;42408;53.238;5.686;2023-11-21T12:37:49;9.25;;;5.97;;
56511;SDS011;42408;53.238;5.686;2023-11-21T12:40:17;10.98;;;5.43;;
56511;SDS011;42408;53.238;5.686;2023-11-21T12:42:53;12.40;;;6.57;;
56511;SDS011;42408;53.238;5.686;2023-11-21T12:45:27;7.85;;;5.45;;
56511;SDS011;42408;53.238;5.686;2023-11-21T12:47:55;8.65;;;5.72;;
56511;SDS011;42408;53.238;5.686;2023-11-21T12:50:24;11.18;;;6.78;;
56511;SDS011;42408;53.238;5.686;2023-11-21T12:55:25;10.88;;;7.10;;
56511;SDS011;42408;53.238;5.686;2023-11-21T12:57:55;11.32;;;7.68;;
56511;SDS011;42408;53.238;5.686;2023-11-21T13:00:34;11.77;;;6.85;;
56511;SDS011;42408;53.238;5.686;2023-11-21T13:03:04;10.27;;;7.00;;
56511;SDS011;42408;53.238;5.686;2023-11-21T13:05:32;10.75;;;7.13;;
56511;SDS011;42408;53.238;5.686;2023-11-21T13:08:05;10.50;;;6.28;;
56511;SDS011;42408;53.238;5.686;2023-11-21T13:10:37;12.40;;;7.32;;
56511;SDS011;42408;53.238;5.686;2023-11-21T13:13:10;10.80;;;6.75;;
56511;SDS011;42408;53.238;5.686;2023-11-21T13:15:46;12.43;;;7.63;;
56511;SDS011;42408;53.238;5.686;2023-11-21T13:18:13;9.50;;;6.03;;
56511;SDS011;42408;53.238;5.686;2023-11-21T13:20:39;10.20;;;6.50;;
56511;SDS011;42408;53.238;5.686;2023-11-21T13:23:09;9.65;;;6.03;;
56511;SDS011;42408;53.238;5.686;2023-11-21T13:25:39;9.43;;;6.47;;
56511;SDS011;42408;53.238;5.686;2023-11-21T13:28:10;9.10;;;5.53;;
56511;SDS011;42408;53.238;5.686;2023-11-21T13:30:36;8.55;;;6.18;;
56511;SDS011;42408;53.238;5.686;2023-11-21T13:33:04;10.13;;;6.57;;
56511;SDS011;42408;53.238;5.686;2023-11-21T13:35:36;10.60;;;5.85;;
56511;SDS011;42408;53.238;5.686;2023-11-21T13:40:33;12.88;;;8.82;;
56511;SDS011;42408;53.238;5.686;2023-11-21T13:43:04;12.98;;;8.20;;
56511;SDS011;42408;53.238;5.686;2023-11-21T13:45:35;10.82;;;7.82;;
56511;SDS011;42408;53.238;5.686;2023-11-21T13:48:04;12.15;;;7.50;;
56511;SDS011;42408;53.238;5.686;2023-11-21T13:50:35;11.02;;;7.82;;
56511;SDS011;42408;53.238;5.686;2023-11-21T13:53:04;12.48;;;8.35;;
56511;SDS011;42408;53.238;5.686;2023-11-21T13:55:44;12.68;;;8.10;;
56511;SDS011;42408;53.238;5.686;2023-11-21T13:58:10;10.75;;;7.43;;
56511;SDS011;42408;53.238;5.686;2023-11-21T14:00:37;12.75;;;7.88;;
56511;SDS011;42408;53.238;5.686;2023-11-21T14:03:10;14.02;;;8.55;;
56511;SDS011;42408;53.238;5.686;2023-11-21T14:05:44;13.07;;;8.50;;
56511;SDS011;42408;53.238;5.686;2023-11-21T14:08:12;12.48;;;7.75;;
56511;SDS011;42408;53.238;5.686;2023-11-21T14:10:41;11.55;;;7.68;;
56511;SDS011;42408;53.238;5.686;2023-11-21T14:13:11;11.63;;;7.20;;
56511;SDS011;42408;53.238;5.686;2023-11-21T14:15:38;12.48;;;7.72;;
56511;SDS011;42408;53.238;5.686;2023-11-21T14:18:08;10.30;;;7.10;;
56511;SDS011;42408;53.238;5.686;2023-11-21T14:20:42;13.85;;;7.95;;
56511;SDS011;42408;53.238;5.686;2023-11-21T14:23:09;12.88;;;7.82;;
56511;SDS011;42408;53.238;5.686;2023-11-21T14:25:36;11.98;;;7.75;;
56511;SDS011;42408;53.238;5.686;2023-11-21T14:28:03;12.40;;;8.05;;
56511;SDS011;42408;53.238;5.686;2023-11-21T14:30:31;12.38;;;8.27;;
56511;SDS011;42408;53.238;5.686;2023-11-21T14:32:58;11.43;;;7.07;;
56511;SDS011;42408;53.238;5.686;2023-11-21T14:35:24;9.63;;;6.30;;
56511;SDS011;42408;53.238;5.686;2023-11-21T14:37:50;11.23;;;6.83;;
56511;SDS011;42408;53.238;5.686;2023-11-21T14:40:16;7.90;;;5.30;;
56511;SDS011;42408;53.238;5.686;2023-11-21T14:45:12;9.88;;;5.85;;
56511;SDS011;42408;53.238;5.686;2023-11-21T14:47:42;9.93;;;5.72;;
56511;SDS011;42408;53.238;5.686;2023-11-21T14:50:13;10.27;;;6.40;;
56511;SDS011;42408;53.238;5.686;2023-11-21T14:52:57;8.15;;;5.30;;
56511;SDS011;42408;53.238;5.686;2023-11-21T14:57:56;8.15;;;5.28;;
56511;SDS011;42408;53.238;5.686;2023-11-21T15:00:21;8.97;;;5.13;;
56511;SDS011;42408;53.238;5.686;2023-11-21T15:02:59;8.00;;;5.10;;
56511;SDS011;42408;53.238;5.686;2023-11-21T15:05:26;8.70;;;4.75;;
56511;SDS011;42408;53.238;5.686;2023-11-21T15:10:21;7.93;;;4.90;;